createdAt,value
2019-02-25T00:01:24.984Z,7.13
2019-02-25T00:03:54.706Z,5.97
2019-02-25T00:06:24.707Z,6.27
2019-02-25T00:08:54.552Z,7.03
2019-02-25T00:11:24.216Z,7.00
2019-02-25T00:13:54.125Z,6.97
2019-02-25T00:16:23.872Z,7.60
2019-02-25T00:18:53.758Z,7.10
2019-02-25T00:21:23.366Z,7.28
2019-02-25T00:23:53.517Z,7.83
2019-02-25T00:26:23.506Z,7.03
2019-02-25T00:28:53.238Z,7.43
2019-02-25T00:31:23.122Z,7.50
2019-02-25T00:33:52.758Z,6.57
2019-02-25T00:39:05.155Z,8.40
2019-02-25T00:41:36.132Z,7.67
2019-02-25T00:44:05.906Z,7.30
2019-02-25T00:46:35.632Z,7.70
2019-02-25T00:49:06.038Z,7.53
2019-02-25T00:51:36.374Z,6.67
2019-02-25T00:54:06.071Z,7.10
2019-02-25T00:56:36.003Z,7.00
2019-02-25T00:59:05.946Z,6.60
2019-02-25T01:01:35.542Z,6.47
2019-02-25T01:04:07.083Z,7.10
2019-02-25T01:06:36.768Z,6.33
2019-02-25T01:09:08.100Z,6.77
2019-02-25T01:11:38.488Z,6.93
2019-02-25T01:14:08.703Z,7.30
2019-02-25T01:16:38.989Z,6.90
2019-02-25T01:19:08.920Z,6.43
2019-02-25T01:21:39.807Z,7.00
2019-02-25T01:24:09.682Z,6.53
2019-02-25T01:26:39.352Z,6.80
2019-02-25T01:29:08.978Z,6.93
2019-02-25T01:31:39.129Z,6.70
2019-02-25T01:34:08.801Z,7.37
2019-02-25T01:36:38.648Z,7.23
2019-02-25T01:39:09.080Z,7.37
2019-02-25T01:41:38.947Z,6.62
2019-02-25T01:44:08.572Z,7.23
2019-02-25T01:46:38.427Z,7.53
2019-02-25T01:49:08.532Z,7.47
2019-02-25T01:51:38.399Z,6.83
2019-02-25T01:54:08.270Z,7.10
2019-02-25T01:56:38.103Z,6.23
2019-02-25T01:59:08.563Z,6.90
2019-02-25T02:01:38.174Z,6.80
2019-02-25T02:04:08.049Z,6.43
2019-02-25T02:06:37.917Z,6.73
2019-02-25T02:09:08.395Z,6.30
2019-02-25T02:11:38.756Z,6.00
2019-02-25T02:14:10.689Z,5.90
2019-02-25T02:16:40.390Z,6.37
2019-02-25T02:19:10.431Z,6.10
2019-02-25T02:21:40.822Z,5.23
2019-02-25T02:24:14.362Z,5.90
2019-02-25T02:26:44.798Z,6.20
2019-02-25T02:29:15.722Z,6.30
2019-02-25T02:31:45.425Z,5.83
2019-02-25T02:34:15.848Z,5.65
2019-02-25T02:36:46.386Z,5.70
2019-02-25T02:39:16.754Z,5.83
2019-02-25T02:42:20.887Z,6.37
2019-02-25T02:45:38.410Z,5.85
2019-02-25T02:48:11.838Z,5.73
2019-02-25T02:50:41.967Z,5.97
2019-02-25T02:53:11.951Z,5.40
2019-02-25T02:55:41.870Z,5.90
2019-02-25T02:58:11.780Z,7.40
2019-02-25T03:00:41.535Z,6.27
2019-02-25T03:03:11.262Z,6.33
2019-02-25T03:05:40.988Z,5.83
2019-02-25T03:08:10.677Z,6.20
2019-02-25T03:10:40.945Z,6.17
2019-02-25T03:13:10.992Z,6.57
2019-02-25T03:15:42.206Z,6.37
2019-02-25T03:18:11.959Z,5.77
2019-02-25T03:20:42.013Z,5.83
2019-02-25T03:23:11.747Z,5.37
2019-02-25T03:25:42.721Z,6.70
2019-02-25T03:28:12.988Z,6.10
2019-02-25T03:30:42.933Z,6.70
2019-02-25T03:33:12.937Z,5.57
2019-02-25T03:35:42.816Z,6.43
2019-02-25T03:38:12.516Z,5.70
2019-02-25T03:40:42.797Z,6.65
2019-02-25T03:43:12.540Z,5.93
2019-02-25T03:45:42.682Z,6.17
2019-02-25T03:48:12.623Z,6.13
2019-02-25T03:50:42.517Z,5.93
2019-02-25T03:53:12.486Z,6.37
2019-02-25T03:55:42.424Z,6.23
2019-02-25T03:58:12.472Z,6.63
2019-02-25T04:00:42.361Z,5.53
2019-02-25T04:03:12.257Z,5.50
2019-02-25T04:05:41.972Z,6.30
2019-02-25T04:08:11.802Z,6.70
2019-02-25T04:10:41.533Z,5.63
2019-02-25T04:13:11.501Z,6.27
2019-02-25T04:15:43.375Z,5.67
2019-02-25T04:18:13.077Z,6.70
2019-02-25T04:20:42.732Z,5.73
2019-02-25T04:23:12.339Z,6.47
2019-02-25T04:25:42.069Z,6.27
2019-02-25T04:28:11.686Z,6.33
2019-02-25T04:30:41.354Z,7.70
2019-02-25T04:33:11.000Z,5.43
2019-02-25T04:35:40.910Z,6.20
2019-02-25T04:38:13.303Z,4.90
2019-02-25T04:40:43.312Z,5.40
2019-02-25T04:43:14.349Z,6.13
2019-02-25T04:45:43.975Z,6.03
2019-02-25T04:48:13.759Z,5.83
2019-02-25T04:50:43.447Z,5.80
2019-02-25T04:53:13.075Z,5.33
2019-02-25T04:55:42.831Z,5.03
2019-02-25T04:58:12.480Z,5.07
2019-02-25T05:00:42.109Z,5.10
2019-02-25T05:03:12.086Z,4.80
2019-02-25T05:05:41.728Z,5.13
2019-02-25T05:08:11.600Z,5.17
2019-02-25T05:10:41.293Z,5.33
2019-02-25T05:13:10.975Z,4.83
2019-02-25T05:15:40.957Z,5.20
2019-02-25T05:18:10.909Z,5.33
2019-02-25T05:20:40.820Z,5.43
2019-02-25T05:23:10.538Z,5.90
2019-02-25T05:25:40.541Z,5.40
2019-02-25T05:28:10.428Z,5.97
2019-02-25T05:30:40.050Z,5.37
2019-02-25T05:33:09.842Z,5.37
2019-02-25T05:35:39.472Z,5.87
2019-02-25T05:38:10.038Z,4.93
2019-02-25T05:40:39.678Z,5.70
2019-02-25T05:43:09.412Z,5.27
2019-02-25T05:45:40.003Z,4.90
2019-02-25T05:48:09.695Z,4.92
2019-02-25T05:50:39.348Z,4.90
2019-02-25T05:53:09.049Z,5.03
2019-02-25T05:55:38.923Z,5.63
2019-02-25T05:58:08.570Z,5.13
2019-02-25T06:00:38.220Z,5.77
2019-02-25T06:03:08.095Z,5.30
2019-02-25T06:05:37.722Z,5.03
2019-02-25T06:08:07.661Z,4.70
2019-02-25T06:10:37.291Z,5.15
2019-02-25T06:13:06.930Z,5.23
2019-02-25T06:15:36.592Z,5.57
2019-02-25T06:18:06.515Z,5.80
2019-02-25T06:20:36.252Z,5.47
2019-02-25T06:23:05.881Z,6.13
2019-02-25T06:25:35.561Z,6.00
2019-02-25T06:28:05.312Z,6.10
2019-02-25T06:30:35.194Z,5.35
2019-02-25T06:33:04.954Z,6.47
2019-02-25T06:35:34.797Z,5.30
2019-02-25T06:38:05.081Z,5.63
2019-02-25T06:40:34.813Z,5.67
2019-02-25T06:43:05.379Z,5.37
2019-02-25T06:45:35.126Z,6.03
2019-02-25T06:48:05.168Z,5.70
2019-02-25T06:50:35.164Z,7.03
2019-02-25T06:53:05.045Z,6.23
2019-02-25T06:55:35.150Z,6.83
2019-02-25T06:58:05.755Z,6.23
2019-02-25T07:00:35.605Z,6.83
2019-02-25T07:03:05.327Z,6.47
2019-02-25T07:05:54.227Z,6.60
2019-02-25T07:08:40.879Z,6.70
2019-02-25T07:11:35.748Z,6.00
2019-02-25T07:14:19.189Z,6.50
2019-02-25T07:17:07.866Z,6.07
2019-02-25T07:20:11.927Z,4.70
2019-02-25T07:22:46.799Z,6.00
2019-02-25T07:25:38.149Z,5.87
2019-02-25T07:28:25.907Z,5.40
2019-02-25T07:31:11.584Z,5.97
2019-02-25T07:33:54.470Z,6.47
2019-02-25T07:36:32.871Z,6.77
2019-02-25T07:39:33.674Z,6.30
2019-02-25T07:42:31.541Z,5.37
2019-02-25T07:45:07.716Z,5.43
2019-02-25T07:47:57.435Z,5.97
2019-02-25T07:50:36.374Z,6.07
2019-02-25T07:53:14.574Z,6.17
2019-02-25T07:56:05.624Z,5.93
2019-02-25T07:58:48.258Z,6.15
2019-02-25T08:01:25.785Z,6.80
2019-02-25T08:04:12.357Z,5.83
2019-02-25T08:06:58.521Z,6.13
2019-02-25T08:09:57.888Z,6.73
2019-02-25T08:12:39.901Z,6.50
2019-02-25T08:15:19.973Z,6.50
2019-02-25T08:18:11.523Z,6.53
2019-02-25T08:20:59.142Z,5.83
2019-02-25T08:23:36.717Z,5.73
2019-02-25T08:26:24.750Z,6.37
2019-02-25T08:29:14.074Z,5.53
2019-02-25T08:31:51.532Z,5.60
2019-02-25T08:34:52.149Z,5.27
2019-02-25T08:37:45.011Z,5.33
2019-02-25T08:40:41.051Z,5.57
2019-02-25T08:43:22.509Z,5.53
2019-02-25T08:45:57.816Z,5.42
2019-02-25T08:48:34.839Z,6.20
2019-02-25T08:51:04.674Z,5.67
2019-02-25T08:53:34.341Z,6.03
2019-02-25T08:56:03.955Z,6.37
2019-02-25T08:58:33.662Z,6.28
2019-02-25T09:01:03.484Z,6.78
2019-02-25T09:03:33.099Z,6.40
2019-02-25T09:06:02.950Z,7.30
2019-02-25T09:08:32.654Z,6.25
2019-02-25T09:11:02.276Z,6.25
2019-02-25T09:13:32.185Z,7.07
2019-02-25T09:16:02.123Z,6.60
2019-02-25T09:18:34.118Z,6.53
2019-02-25T09:21:03.846Z,7.50
2019-02-25T09:23:34.001Z,7.22
2019-02-25T09:26:03.932Z,7.92
2019-02-25T09:28:33.843Z,7.47
2019-02-25T09:31:05.689Z,6.83
2019-02-25T09:33:35.488Z,7.58
2019-02-25T09:36:05.226Z,7.47
2019-02-25T09:38:34.877Z,7.40
2019-02-25T09:41:04.654Z,7.27
2019-02-25T09:43:34.380Z,7.00
2019-02-25T09:46:05.752Z,7.70
2019-02-25T09:48:35.770Z,6.92
2019-02-25T09:51:05.416Z,7.43
2019-02-25T09:53:35.324Z,7.28
2019-02-25T09:56:05.239Z,6.73
2019-02-25T09:58:34.913Z,7.10
2019-02-25T10:01:05.733Z,8.75
2019-02-25T10:03:35.658Z,7.62
2019-02-25T10:06:05.426Z,8.27
2019-02-25T10:08:35.130Z,9.27
2019-02-25T10:11:04.868Z,8.57
2019-02-25T10:13:35.193Z,8.93
2019-02-25T10:16:04.945Z,8.63
2019-02-25T10:18:34.853Z,8.57
2019-02-25T10:21:04.503Z,8.60
2019-02-25T10:23:34.507Z,8.10
2019-02-25T10:26:04.228Z,8.83
2019-02-25T10:28:34.253Z,7.77
2019-02-25T10:31:03.982Z,8.37
2019-02-25T10:33:33.825Z,8.70
2019-02-25T10:36:03.527Z,9.23
2019-02-25T10:38:33.458Z,8.37
2019-02-25T10:41:03.558Z,8.53
2019-02-25T10:43:34.597Z,8.98
2019-02-25T10:46:06.958Z,9.43
2019-02-25T10:48:37.498Z,8.77
2019-02-25T10:51:09.247Z,9.10
2019-02-25T10:53:39.017Z,10.03
2019-02-25T10:56:17.331Z,9.30
2019-02-25T10:58:48.011Z,9.13
2019-02-25T11:01:19.893Z,9.20
2019-02-25T11:03:54.313Z,9.17
2019-02-25T11:06:25.207Z,8.70
2019-02-25T11:09:15.767Z,9.33
2019-02-25T11:11:48.426Z,9.03
2019-02-25T11:14:18.101Z,8.87
2019-02-25T11:16:48.524Z,9.07
2019-02-25T11:19:19.132Z,10.38
2019-02-25T11:21:49.058Z,10.48
2019-02-25T11:24:20.718Z,11.22
2019-02-25T11:26:50.312Z,13.47
2019-02-25T11:29:20.528Z,9.67
2019-02-25T11:31:51.598Z,9.43
2019-02-25T11:34:21.689Z,9.53
2019-02-25T11:36:54.693Z,8.70
2019-02-25T11:39:27.463Z,10.40
2019-02-25T11:41:57.134Z,8.97
2019-02-25T11:44:31.258Z,9.73
2019-02-25T11:47:02.324Z,9.53
2019-02-25T11:49:32.238Z,9.77
2019-02-25T11:52:01.893Z,8.97
2019-02-25T11:54:31.517Z,8.97
2019-02-25T11:57:01.243Z,8.10
2019-02-25T11:59:30.886Z,8.50
2019-02-25T12:02:01.622Z,8.90
2019-02-25T12:04:31.838Z,8.63
2019-02-25T12:07:01.529Z,8.77
2019-02-25T12:09:31.413Z,8.77
2019-02-25T12:12:01.268Z,8.50
2019-02-25T12:14:30.978Z,8.47
2019-02-25T12:17:00.958Z,8.77
2019-02-25T12:19:30.908Z,9.60
2019-02-25T12:22:00.525Z,9.07
2019-02-25T12:24:30.238Z,9.67
2019-02-25T12:26:59.853Z,8.80
2019-02-25T12:29:29.575Z,8.70
2019-02-25T12:31:59.282Z,8.50
2019-02-25T12:34:28.937Z,8.87
2019-02-25T12:36:58.862Z,8.70
2019-02-25T12:39:28.614Z,8.83
2019-02-25T12:41:59.010Z,9.67
2019-02-25T12:44:28.995Z,9.37
2019-02-25T12:46:58.869Z,9.10
2019-02-25T12:49:28.860Z,9.93
2019-02-25T12:51:58.566Z,8.23
2019-02-25T12:54:28.796Z,8.83
2019-02-25T12:56:58.450Z,8.43
2019-02-25T12:59:28.096Z,9.43
2019-02-25T13:01:58.030Z,8.33
2019-02-25T13:04:27.702Z,8.80
2019-02-25T13:06:57.590Z,10.07
2019-02-25T13:09:30.166Z,9.80
2019-02-25T13:12:00.141Z,10.40
2019-02-25T13:14:30.302Z,9.73
2019-02-25T13:16:59.916Z,9.23
2019-02-25T13:19:29.560Z,9.43
2019-02-25T13:21:59.826Z,9.13
2019-02-25T13:24:30.837Z,9.30
2019-02-25T13:27:03.185Z,8.70
2019-02-25T13:29:33.260Z,9.33
2019-02-25T13:32:02.898Z,8.43
2019-02-25T13:34:32.541Z,10.70
2019-02-25T13:37:02.325Z,9.33
2019-02-25T13:39:32.031Z,10.00
2019-02-25T13:42:01.715Z,10.10
2019-02-25T13:44:31.723Z,10.33
2019-02-25T13:47:01.521Z,8.60
2019-02-25T13:49:31.210Z,8.10
2019-02-25T13:52:01.334Z,9.10
2019-02-25T13:54:31.984Z,8.87
2019-02-25T13:57:01.784Z,9.60
2019-02-25T13:59:31.439Z,8.60
2019-02-25T14:02:01.109Z,8.70
2019-02-25T14:04:30.795Z,9.50
2019-02-25T14:07:00.951Z,9.50
2019-02-25T14:09:30.634Z,9.23
2019-02-25T14:12:00.382Z,10.37
2019-02-25T14:14:30.263Z,10.40
2019-02-25T14:16:59.959Z,10.93
2019-02-25T14:19:29.654Z,9.00
2019-02-25T14:21:59.400Z,10.00
2019-02-25T14:24:29.848Z,10.37
2019-02-25T14:27:00.254Z,9.23
2019-02-25T14:29:30.677Z,9.13
2019-02-25T14:32:00.334Z,8.33
2019-02-25T14:34:32.335Z,9.17
2019-02-25T14:37:04.645Z,9.30
2019-02-25T14:39:36.029Z,9.40
2019-02-25T14:42:06.801Z,9.77
2019-02-25T14:44:38.107Z,8.63
2019-02-25T14:47:19.582Z,8.07
2019-02-25T14:49:42.933Z,8.67
2019-02-25T14:52:12.442Z,9.10
2019-02-25T14:54:42.054Z,9.73
2019-02-25T14:57:11.939Z,9.93
2019-02-25T14:59:42.058Z,9.43
2019-02-25T15:02:11.868Z,8.87
2019-02-25T15:04:42.224Z,8.73
2019-02-25T15:07:15.129Z,8.67
2019-02-25T15:09:45.765Z,8.70
2019-02-25T15:12:15.612Z,9.17
2019-02-25T15:14:45.831Z,9.90
2019-02-25T15:17:15.522Z,9.33
2019-02-25T15:19:45.281Z,8.60
2019-02-25T15:22:14.997Z,9.58
2019-02-25T15:24:47.927Z,8.45
2019-02-25T15:27:15.995Z,8.28
2019-02-25T15:29:46.809Z,8.37
2019-02-25T15:32:17.694Z,8.50
2019-02-25T15:34:48.571Z,8.90
2019-02-25T15:37:18.973Z,8.83
2019-02-25T15:39:48.861Z,8.93
2019-02-25T15:42:18.829Z,9.73
2019-02-25T15:44:51.219Z,9.13
2019-02-25T15:47:20.807Z,9.33
2019-02-25T15:49:50.594Z,8.90
2019-02-25T15:52:21.062Z,9.10
2019-02-25T15:54:51.868Z,9.00
2019-02-25T15:57:22.542Z,9.60
2019-02-25T15:59:54.175Z,8.98
2019-02-25T16:02:23.828Z,8.90
2019-02-25T16:04:54.055Z,9.23
2019-02-25T16:07:25.882Z,10.13
2019-02-25T16:09:57.117Z,9.60
2019-02-25T16:12:27.538Z,10.10
2019-02-25T16:14:58.609Z,10.33
2019-02-25T16:17:28.377Z,10.57
2019-02-25T16:19:58.276Z,10.43
2019-02-25T16:22:29.914Z,10.00
2019-02-25T16:25:00.625Z,10.97
2019-02-25T16:27:32.938Z,9.60
2019-02-25T16:30:03.651Z,10.00
2019-02-25T16:32:35.067Z,10.63
2019-02-25T16:35:07.172Z,10.23
2019-02-25T16:37:36.713Z,10.13
2019-02-25T16:40:10.134Z,10.77
2019-02-25T16:42:41.281Z,10.78
2019-02-25T16:45:14.196Z,8.63
2019-02-25T16:47:45.236Z,10.55
2019-02-25T16:50:16.487Z,10.20
2019-02-25T16:52:49.370Z,10.07
2019-02-25T16:55:20.613Z,10.43
2019-02-25T16:57:51.570Z,10.17
2019-02-25T17:00:24.816Z,11.93
2019-02-25T17:02:53.392Z,12.10
2019-02-25T17:05:23.556Z,12.45
2019-02-25T17:07:55.970Z,10.83
2019-02-25T17:10:27.115Z,11.43
2019-02-25T17:12:56.900Z,12.17
2019-02-25T17:15:27.365Z,12.07
2019-02-25T17:17:59.633Z,11.90
2019-02-25T17:20:28.894Z,12.50
2019-02-25T17:22:59.738Z,12.80
2019-02-25T17:25:31.612Z,12.43
2019-02-25T17:28:01.127Z,11.70
2019-02-25T17:30:31.117Z,11.00
2019-02-25T17:33:01.596Z,11.60
2019-02-25T17:35:32.485Z,11.73
2019-02-25T17:38:03.585Z,12.33
2019-02-25T17:40:33.528Z,12.63
2019-02-25T17:43:03.365Z,13.10
2019-02-25T17:45:34.475Z,13.77
2019-02-25T17:48:08.104Z,13.23
2019-02-25T17:50:39.116Z,12.67
2019-02-25T17:53:09.742Z,14.30
2019-02-25T17:55:39.948Z,14.47
2019-02-25T17:58:10.048Z,17.63
2019-02-25T18:00:42.441Z,16.17
2019-02-25T18:03:17.199Z,15.43
2019-02-25T18:05:47.325Z,16.80
2019-02-25T18:08:17.048Z,16.87
2019-02-25T18:10:47.486Z,16.60
2019-02-25T18:13:19.587Z,17.07
2019-02-25T18:15:51.487Z,17.23
2019-02-25T18:18:24.387Z,16.87
2019-02-25T18:20:54.083Z,14.77
2019-02-25T18:23:24.011Z,16.20
2019-02-25T18:25:58.097Z,14.83
2019-02-25T18:28:25.290Z,13.73
2019-02-25T18:30:55.198Z,14.27
2019-02-25T18:33:26.869Z,14.47
2019-02-25T18:35:59.785Z,12.77
2019-02-25T18:38:30.101Z,13.40
2019-02-25T18:41:02.413Z,12.43
2019-02-25T18:43:32.692Z,12.23
2019-02-25T18:46:04.824Z,11.40
2019-02-25T18:48:34.124Z,12.97
2019-02-25T18:51:05.961Z,13.03
2019-02-25T18:53:35.942Z,13.17
2019-02-25T18:56:06.078Z,12.17
2019-02-25T18:58:37.543Z,13.57
2019-02-25T19:01:09.705Z,13.60
2019-02-25T19:03:40.335Z,12.13
2019-02-25T19:06:10.436Z,13.83
2019-02-25T19:08:43.263Z,12.50
2019-02-25T19:11:13.288Z,12.67
2019-02-25T19:13:45.816Z,12.50
2019-02-25T19:16:16.349Z,10.87
2019-02-25T19:18:47.741Z,12.13
2019-02-25T19:21:18.887Z,11.37
2019-02-25T19:23:48.805Z,12.13
2019-02-25T19:26:19.637Z,12.17
2019-02-25T19:28:52.056Z,12.43
2019-02-25T19:31:21.440Z,12.70
2019-02-25T19:33:52.354Z,13.03
2019-02-25T19:36:25.695Z,11.40
2019-02-25T19:38:54.173Z,10.57
2019-02-25T19:41:25.889Z,11.30
2019-02-25T19:43:59.202Z,11.03
2019-02-25T19:46:27.209Z,12.33
2019-02-25T19:48:57.389Z,12.33
2019-02-25T19:51:28.041Z,12.87
2019-02-25T19:53:59.810Z,12.77
2019-02-25T19:56:30.555Z,11.90
2019-02-25T19:59:03.740Z,11.90
2019-02-25T20:01:32.967Z,12.47
2019-02-25T20:04:06.421Z,13.17
2019-02-25T20:06:34.088Z,12.93
2019-02-25T20:09:07.407Z,12.30
2019-02-25T20:11:38.287Z,12.33
2019-02-25T20:14:10.886Z,13.60
2019-02-25T20:16:40.776Z,12.00
2019-02-25T20:19:10.513Z,11.93
2019-02-25T20:21:40.335Z,12.30
2019-02-25T20:24:14.380Z,12.03
2019-02-25T20:26:41.858Z,11.93
2019-02-25T20:29:12.750Z,11.37
2019-02-25T20:31:43.247Z,12.77
2019-02-25T20:34:18.509Z,12.17
2019-02-25T20:36:48.330Z,11.22
2019-02-25T20:39:18.991Z,12.40
2019-02-25T20:41:50.725Z,12.70
2019-02-25T20:44:23.939Z,12.00
2019-02-25T20:46:55.076Z,11.83
2019-02-25T20:49:29.318Z,11.33
2019-02-25T20:52:00.922Z,12.03
2019-02-25T20:54:28.720Z,11.45
2019-02-25T20:56:59.553Z,27.07
2019-02-25T20:59:30.897Z,12.80
2019-02-25T21:02:00.953Z,12.37
2019-02-25T21:04:30.736Z,12.23
2019-02-25T21:07:02.261Z,11.87
2019-02-25T21:09:33.662Z,11.70
2019-02-25T21:12:04.169Z,12.00
2019-02-25T21:14:35.580Z,12.30
2019-02-25T21:17:06.240Z,12.23
2019-02-25T21:19:37.805Z,12.37
2019-02-25T21:22:08.763Z,12.73
2019-02-25T21:24:38.904Z,12.43
2019-02-25T21:27:10.416Z,12.50
2019-02-25T21:29:41.286Z,13.27
2019-02-25T21:32:15.081Z,13.77
2019-02-25T21:34:46.184Z,14.47
2019-02-25T21:37:14.802Z,13.25
2019-02-25T21:39:44.488Z,12.80
2019-02-25T21:42:17.062Z,13.03
2019-02-25T21:44:48.315Z,13.53
2019-02-25T21:47:20.167Z,13.10
2019-02-25T21:49:49.968Z,11.70
2019-02-25T21:52:20.001Z,12.53
2019-02-25T21:54:49.783Z,12.70
2019-02-25T21:57:19.450Z,12.83
2019-02-25T21:59:49.386Z,11.97
2019-02-25T22:02:19.260Z,11.90
2019-02-25T22:04:50.164Z,11.93
2019-02-25T22:07:24.379Z,12.07
2019-02-25T22:09:52.062Z,12.18
2019-02-25T22:12:21.794Z,13.33
2019-02-25T22:14:52.190Z,13.07
2019-02-25T22:17:22.999Z,11.57
2019-02-25T22:19:53.561Z,11.80
2019-02-25T22:22:26.211Z,11.77
2019-02-25T22:24:54.882Z,11.73
2019-02-25T22:27:24.504Z,11.77
2019-02-25T22:29:54.453Z,11.63
2019-02-25T22:32:24.374Z,11.87
2019-02-25T22:34:56.045Z,12.03
2019-02-25T22:37:26.874Z,11.23
2019-02-25T22:39:57.136Z,12.77
2019-02-25T22:42:27.429Z,12.95
2019-02-25T22:44:58.574Z,12.53
2019-02-25T22:47:28.422Z,11.27
2019-02-25T22:49:58.184Z,11.80
2019-02-25T22:52:29.263Z,12.10
2019-02-25T22:54:59.675Z,12.07
2019-02-25T22:57:29.662Z,12.27
2019-02-25T22:59:59.526Z,12.07
2019-02-25T23:02:29.627Z,13.03
2019-02-25T23:04:59.695Z,13.45
2019-02-25T23:07:29.357Z,12.40
2019-02-25T23:09:59.269Z,12.40
2019-02-25T23:12:31.091Z,11.00
2019-02-25T23:15:03.153Z,11.43
2019-02-25T23:17:35.696Z,11.13
2019-02-25T23:20:09.351Z,11.17
2019-02-25T23:22:39.130Z,10.47
2019-02-25T23:25:08.878Z,11.03
2019-02-25T23:27:39.296Z,10.67
2019-02-25T23:30:09.416Z,10.60
2019-02-25T23:32:39.573Z,11.57
2019-02-25T23:35:13.379Z,8.97
2019-02-25T23:37:40.884Z,9.93
2019-02-25T23:40:12.522Z,10.72
2019-02-25T23:42:44.138Z,11.10
2019-02-25T23:45:15.452Z,10.43
2019-02-25T23:47:47.285Z,10.45
2019-02-25T23:50:16.969Z,11.67
2019-02-25T23:52:46.584Z,11.57
2019-02-25T23:55:18.930Z,11.28
2019-02-25T23:57:48.952Z,10.97
